createdAt,value
2019-05-23T00:01:28.375Z,3.2
2019-05-23T00:11:26.999Z,2.9
2019-05-23T00:21:27.529Z,3.6
2019-05-23T00:31:27.625Z,4.4
2019-05-23T00:41:27.239Z,3.8
2019-05-23T00:51:26.141Z,2.8
2019-05-23T01:01:27.053Z,1.8
2019-05-23T01:11:26.742Z,1.9
2019-05-23T01:21:25.847Z,5.3
2019-05-23T01:31:27.665Z,2.7
2019-05-23T01:41:26.262Z,3.3
2019-05-23T01:51:27.488Z,4.6
2019-05-23T02:01:28.026Z,5.7
2019-05-23T02:11:27.812Z,7.5
2019-05-23T02:21:28.840Z,6.8
2019-05-23T02:31:27.121Z,6.4
2019-05-23T02:41:28.093Z,13.1
2019-05-23T02:51:27.493Z,6.3
2019-05-23T03:01:26.930Z,9.7
2019-05-23T03:11:26.551Z,10.1
2019-05-23T03:21:26.858Z,10.3
2019-05-23T03:31:32.767Z,9.6
2019-05-23T03:41:27.069Z,11.5
2019-05-23T03:51:26.834Z,8.5
2019-05-23T04:01:48.970Z,9.6
2019-05-23T04:11:25.705Z,10.0
2019-05-23T04:21:26.548Z,9.9
2019-05-23T04:31:28.758Z,12.4
2019-05-23T04:41:27.554Z,16.4
2019-05-23T04:51:27.534Z,9.5
2019-05-23T05:01:27.390Z,6.2
2019-05-23T05:11:31.254Z,8.6
2019-05-23T05:21:26.621Z,6.6
2019-05-23T05:31:26.981Z,6.1
2019-05-23T05:41:27.439Z,5.7
2019-05-23T05:51:26.865Z,4.8
2019-05-23T06:01:34.847Z,5.5
2019-05-23T06:11:26.523Z,6.2
2019-05-23T06:21:26.776Z,8.0
2019-05-23T06:31:26.577Z,6.2
2019-05-23T06:41:28.446Z,3.8
2019-05-23T06:51:26.368Z,2.8
2019-05-23T07:01:25.916Z,2.8
2019-05-23T07:11:25.795Z,4.5
2019-05-23T07:21:28.261Z,3.1
2019-05-23T07:31:28.272Z,4.5
2019-05-23T07:41:27.813Z,4.2
2019-05-23T07:51:30.439Z,5.6
2019-05-23T08:01:35.537Z,6.0
2019-05-23T08:11:28.513Z,7.4
2019-05-23T08:21:25.407Z,7.1
2019-05-23T08:31:26.548Z,6.3
2019-05-23T08:41:27.934Z,4.5
2019-05-23T08:51:26.517Z,5.0
2019-05-23T09:01:27.227Z,3.0
2019-05-23T09:11:27.024Z,3.6
2019-05-23T09:21:26.905Z,5.9
2019-05-23T09:31:26.726Z,4.3
2019-05-23T09:41:36.762Z,6.2
2019-05-23T09:51:26.477Z,4.9
2019-05-23T10:01:28.234Z,7.1
2019-05-23T10:11:26.969Z,8.1
2019-05-23T10:21:27.039Z,8.8
2019-05-23T10:31:26.851Z,8.4
2019-05-23T10:41:26.597Z,7.0
2019-05-23T10:51:27.309Z,11.6
2019-05-23T11:01:27.122Z,11.2
2019-05-23T11:11:26.305Z,8.7
2019-05-23T11:21:25.945Z,8.5
2019-05-23T11:31:26.828Z,8.7
2019-05-23T11:41:26.757Z,7.2
2019-05-23T11:51:27.896Z,11.3
2019-05-23T12:01:29.159Z,10.0
2019-05-23T12:11:25.899Z,13.5
2019-05-23T12:21:27.563Z,12.2
2019-05-23T12:31:27.178Z,10.5
2019-05-23T12:41:25.866Z,11.2
2019-05-23T12:51:26.186Z,9.5
2019-05-23T13:01:26.907Z,8.3
2019-05-23T13:11:26.582Z,11.5
2019-05-23T13:21:25.818Z,14.0
2019-05-23T13:31:26.687Z,15.7
2019-05-23T13:41:27.296Z,17.3
2019-05-23T13:51:27.557Z,9.3
2019-05-23T14:01:27.946Z,11.5
2019-05-23T14:11:26.406Z,9.5
2019-05-23T14:21:28.427Z,11.8
2019-05-23T14:31:27.492Z,9.4
2019-05-23T14:41:42.926Z,18.3
2019-05-23T14:51:27.689Z,13.6
2019-05-23T15:01:28.094Z,11.9
2019-05-23T15:11:28.368Z,16.5
2019-05-23T15:21:27.269Z,13.7
2019-05-23T15:31:28.401Z,17.4
2019-05-23T15:41:27.014Z,16.4
2019-05-23T15:51:28.324Z,15.3
2019-05-23T16:01:27.832Z,12.1
2019-05-23T16:11:28.175Z,16.8
2019-05-23T16:21:26.888Z,18.3
2019-05-23T16:31:26.497Z,18.8
2019-05-23T16:41:27.159Z,19.2
2019-05-23T16:51:27.625Z,18.1
2019-05-23T17:01:27.253Z,22.7
2019-05-23T17:11:30.413Z,22.2
2019-05-23T17:21:26.709Z,20.8
2019-05-23T17:31:27.595Z,21.3
2019-05-23T17:41:27.438Z,19.2
2019-05-23T17:51:27.118Z,20.2
2019-05-23T18:01:26.800Z,24.2
2019-05-23T18:11:27.582Z,20.6
2019-05-23T18:21:26.754Z,23.2
2019-05-23T18:31:26.458Z,18.6
2019-05-23T18:41:27.695Z,17.4
2019-05-23T18:51:26.908Z,20.9
2019-05-23T19:01:26.414Z,21.0
2019-05-23T19:11:27.648Z,18.2
2019-05-23T19:21:27.693Z,19.5
2019-05-23T19:31:26.441Z,25.5
2019-05-23T19:41:38.337Z,28.0
2019-05-23T19:51:27.050Z,27.6
2019-05-23T20:01:27.044Z,27.8
2019-05-23T20:11:27.067Z,29.3
2019-05-23T20:21:27.457Z,27.2
2019-05-23T20:31:27.330Z,26.1
2019-05-23T20:41:27.259Z,27.3
2019-05-23T20:51:28.432Z,25.9
2019-05-23T21:01:27.937Z,29.0
2019-05-23T21:11:27.171Z,31.0
2019-05-23T21:21:59.029Z,30.2
2019-05-23T21:31:27.158Z,28.4
2019-05-23T21:42:48.244Z,27.1
2019-05-23T21:52:32.037Z,24.5
2019-05-23T22:01:26.893Z,25.8
2019-05-23T22:12:32.281Z,26.3
2019-05-23T22:22:34.591Z,35.6
2019-05-23T22:31:28.035Z,32.6
2019-05-23T22:41:26.712Z,43.2
2019-05-23T22:51:28.359Z,45.7
2019-05-23T23:02:00.025Z,45.0
2019-05-23T23:13:02.473Z,46.3
2019-05-23T23:21:28.123Z,48.9
2019-05-23T23:31:26.725Z,52.6
2019-05-23T23:41:27.497Z,51.7
2019-05-23T23:51:27.114Z,60.6
